Time;durP1;ratioP1;P1;durP2;ratioP2;P2;SDS_P1;SDS_P2;PMS_P1;PMS_P2;Temp;Humidity;BMP_temperature;BMP_pressure;BME280_temperature;BME280_humidity;BME280_pressure;Samples;Min_cycle;Max_cycle;Signal;HPM_P1;HPM_P2
2023/05/24 00:01:25;;;;;;;20.37;5.00;;;9.40;98.70;;;8.70;71.06;101528.94;5015665;28;20310;-76
2023/05/24 00:03:59;;;;;;;17.57;5.00;;;9.40;98.80;;;8.66;71.46;101523.00;5016068;28;20219;-75
2023/05/24 00:06:36;;;;;;;14.90;4.03;;;9.40;98.90;;;8.77;70.80;101519.44;5015656;28;20559;-75
2023/05/24 00:09:21;;;;;;;14.53;4.13;;;9.40;98.80;;;8.76;71.21;101524.91;5015937;28;20210;-75
2023/05/24 00:11:54;;;;;;;25.83;5.27;;;9.40;98.80;;;8.75;71.48;101516.06;5015755;28;20231;-75
2023/05/24 00:14:28;;;;;;;18.20;5.00;;;9.40;98.80;;;8.84;70.62;101527.75;5015948;28;20203;-75
2023/05/24 00:17:01;;;;;;;21.67;5.87;;;9.50;98.70;;;8.80;71.33;101521.84;5015813;28;20232;-75
2023/05/24 00:19:37;;;;;;;22.57;6.37;;;9.40;98.90;;;8.82;71.37;101529.72;5015746;28;20192;-75
2023/05/24 00:22:12;;;;;;;21.73;5.70;;;9.50;98.90;;;8.73;71.33;101519.84;5015586;28;20313;-75
2023/05/24 00:24:46;;;;;;;17.37;5.17;;;9.40;99.00;;;8.68;72.20;101528.22;5015391;28;20698;-75
2023/05/24 00:27:19;;;;;;;24.43;6.17;;;9.40;99.00;;;8.65;72.10;101512.47;5015687;28;20191;-75
2023/05/24 00:29:52;;;;;;;24.50;5.60;;;9.30;99.20;;;8.50;72.83;101527.09;5015643;28;20274;-75
2023/05/24 00:32:26;;;;;;;16.07;5.50;;;9.20;99.50;;;8.49;72.53;101522.75;5015172;28;20771;-75
2023/05/24 00:34:59;;;;;;;18.67;6.27;;;9.10;99.80;;;8.58;72.97;101517.47;5015210;28;20641;-75
2023/05/24 00:37:33;;;;;;;19.23;5.67;;;9.30;99.60;;;8.52;73.24;101520.66;5015239;28;20633;-75
2023/05/24 00:40:07;;;;;;;20.27;5.53;;;9.20;99.90;;;8.58;72.63;101511.28;5015458;28;20198;-75
2023/05/24 00:42:41;;;;;;;19.33;5.03;;;9.20;99.90;;;8.50;73.16;101514.59;5015057;28;20226;-75
2023/05/24 00:45:15;;;;;;;17.23;5.00;;;9.20;99.90;;;8.53;72.75;101509.00;5015033;28;20712;-75
2023/05/24 00:47:49;;;;;;;23.30;5.87;;;9.20;99.80;;;8.48;73.28;101521.91;5015288;28;20192;-75
2023/05/24 00:50:23;;;;;;;23.67;5.73;;;9.10;99.90;;;8.50;73.28;101519.06;5015021;28;20214;-75
2023/05/24 00:53:00;;;;;;;18.70;5.77;;;9.20;99.90;;;8.38;73.79;101510.28;5014870;28;20192;-75
2023/05/24 00:55:35;;;;;;;18.03;5.03;;;9.10;99.90;;;8.49;73.35;101507.56;5015083;28;20282;-75
2023/05/24 00:58:09;;;;;;;16.30;5.90;;;9.20;99.90;;;8.48;73.70;101505.88;5014995;28;20192;-75
2023/05/24 01:00:48;;;;;;;18.93;5.00;;;9.20;99.90;;;8.46;73.72;101502.47;5014884;28;20223;-75
2023/05/24 01:03:22;;;;;;;24.83;5.97;;;9.10;99.90;;;8.36;74.21;101506.03;5014985;28;20215;-75
2023/05/24 01:05:56;;;;;;;22.37;5.67;;;9.10;99.90;;;8.43;74.16;101508.06;5014921;28;20191;-75
2023/05/24 01:08:48;;;;;;;20.93;6.17;;;9.10;99.90;;;8.49;74.09;101501.41;5014510;28;20748;-75
2023/05/24 01:11:35;;;;;;;17.77;5.20;;;9.20;99.90;;;8.52;73.96;101502.00;5014628;28;20235;-75
2023/05/24 01:14:26;;;;;;;22.33;6.23;;;9.20;99.90;;;8.52;74.30;101502.00;5014763;28;20291;-75
2023/05/24 01:17:10;;;;;;;17.07;5.33;;;9.20;99.90;;;8.51;73.84;101502.94;5014400;28;20646;-75
2023/05/24 01:20:05;;;;;;;18.90;5.63;;;9.20;99.90;;;8.53;74.21;101501.00;5014522;28;20287;-75
2023/05/24 01:23:07;;;;;;;17.83;6.10;;;9.20;99.90;;;8.53;74.01;101503.66;5014642;28;20287;-74
2023/05/24 01:26:12;;;;;;;21.60;5.57;;;9.20;99.90;;;8.43;75.10;101492.06;5014306;28;20286;-74
2023/05/24 01:28:47;;;;;;;22.63;5.37;;;9.10;99.90;;;8.48;74.54;101489.03;5014636;28;20298;-74
2023/05/24 01:31:23;;;;;;;21.37;5.67;;;9.20;99.90;;;8.47;74.41;101488.16;5014271;28;20282;-74
2023/05/24 01:33:56;;;;;;;20.27;5.23;;;9.20;99.90;;;8.53;74.21;101487.66;5013980;28;20211;-74
2023/05/24 01:36:30;;;;;;;22.13;5.57;;;9.20;99.90;;;8.46;75.15;101489.13;5014329;28;20206;-74
2023/05/24 01:39:04;;;;;;;18.27;5.17;;;9.20;99.90;;;8.47;74.63;101493.50;5014038;28;20223;-74
2023/05/24 01:41:51;;;;;;;29.27;5.77;;;9.10;99.90;;;8.42;75.37;101485.06;5014587;28;20222;-74
2023/05/24 01:44:37;;;;;;;26.77;5.63;;;9.10;99.90;;;8.39;75.19;101485.28;5014224;28;20302;-74
2023/05/24 01:47:28;;;;;;;18.57;5.03;;;9.10;99.90;;;8.42;75.64;101489.53;5013829;28;20711;-74
2023/05/24 01:50:11;;;;;;;24.97;6.70;;;9.00;99.90;;;8.38;75.67;101488.94;5013846;28;20192;-74
2023/05/24 01:52:47;;;;;;;18.77;5.20;;;9.10;99.90;;;8.37;75.98;101487.25;5014030;28;20250;-74
2023/05/24 01:55:22;;;;;;;17.50;5.67;;;9.10;99.90;;;8.37;75.54;101489.91;5013199;28;20198;-74
2023/05/24 01:58:01;;;;;;;21.70;5.23;;;9.10;99.90;;;8.36;75.49;101477.53;5014076;28;20285;-74
2023/05/24 02:00:37;;;;;;;19.97;5.67;;;9.00;99.90;;;8.36;75.90;101479.34;5013927;28;20247;-74
2023/05/24 02:03:12;;;;;;;24.10;6.87;;;9.00;99.90;;;8.31;75.69;101469.09;5013933;28;20199;-74
2023/05/24 02:05:46;;;;;;;22.57;5.93;;;9.00;99.90;;;8.26;76.47;101481.91;5013917;28;20209;-74
2023/05/24 02:08:20;;;;;;;16.47;5.27;;;8.90;99.90;;;8.27;75.89;101474.75;5013926;28;20280;-74
2023/05/24 02:10:53;;;;;;;22.70;6.27;;;9.00;99.90;;;8.20;76.67;101474.44;5013982;28;20308;-74
2023/05/24 02:13:26;;;;;;;19.10;5.50;;;8.90;99.90;;;8.22;76.58;101477.81;5013596;28;20632;-74
2023/05/24 02:15:59;;;;;;;20.97;6.17;;;8.90;99.90;;;8.11;76.58;101468.06;5013853;28;20230;-74
2023/05/24 02:18:34;;;;;;;22.30;6.47;;;8.80;99.90;;;8.09;76.62;101472.66;5013816;28;20223;-74
2023/05/24 02:21:08;;;;;;;26.67;6.47;;;8.80;99.90;;;8.07;77.14;101471.09;5013760;28;20265;-76
2023/05/24 02:23:41;;;;;;;22.67;5.83;;;8.70;99.90;;;8.20;75.92;101468.25;5013469;28;20191;-75
2023/05/24 02:26:16;;;;;;;21.50;5.73;;;8.90;99.90;;;8.19;76.25;101462.06;5013739;28;20283;-75
2023/05/24 02:28:50;;;;;;;20.30;5.63;;;8.90;99.90;;;8.24;76.37;101465.19;5013427;28;20214;-75
2023/05/24 02:31:27;;;;;;;24.70;6.10;;;8.90;99.90;;;8.29;76.12;101441.69;5013322;28;20241;-75
2023/05/24 02:34:01;;;;;;;20.50;5.90;;;9.00;99.90;;;8.26;76.42;101444.56;5013389;28;20253;-75
2023/05/24 02:36:36;;;;;;;20.03;5.80;;;9.00;99.90;;;8.23;76.73;101442.16;5013638;28;20232;-75
2023/05/24 02:39:09;;;;;;;19.53;5.83;;;8.90;99.90;;;8.12;77.54;101444.88;5013655;28;20192;-75
2023/05/24 02:41:43;;;;;;;20.70;6.40;;;8.80;99.90;;;8.21;76.87;101443.28;5013537;28;20255;-75
2023/05/24 02:44:16;;;;;;;28.70;6.83;;;8.90;99.90;;;8.18;77.24;101433.72;5013311;28;20631;-75
2023/05/24 02:46:49;;;;;;;26.40;6.30;;;8.80;99.90;;;8.21;77.72;101433.44;5013758;28;20196;-75
2023/05/24 02:49:22;;;;;;;24.33;6.43;;;8.90;99.90;;;8.18;77.57;101441.72;5013553;28;20195;-75
2023/05/24 02:51:56;;;;;;;23.47;7.27;;;8.90;99.90;;;8.15;77.76;101445.47;5013425;28;20326;-75
2023/05/24 02:54:29;;;;;;;20.90;6.37;;;8.80;99.90;;;8.16;78.00;101451.66;5013496;28;20227;-75
2023/05/24 02:57:05;;;;;;;21.90;6.67;;;8.80;99.90;;;8.23;77.05;101447.50;5013452;28;20202;-75
2023/05/24 02:59:38;;;;;;;27.23;6.73;;;8.90;99.90;;;8.14;77.67;101443.78;5013429;28;20202;-74
2023/05/24 03:02:13;;;;;;;29.60;7.43;;;8.90;99.90;;;8.12;78.10;101453.72;5014244;28;20258;-74
2023/05/24 03:04:47;;;;;;;31.43;9.10;;;8.90;99.90;;;8.12;78.28;101447.53;5013070;28;20198;-74
2023/05/24 03:07:21;;;;;;;24.03;7.47;;;8.80;99.90;;;8.16;78.36;101446.31;5017189;28;20277;-75
2023/05/24 03:09:54;;;;;;;31.90;8.53;;;8.90;99.90;;;8.15;78.66;101441.94;5017009;28;20192;-76
2023/05/24 03:12:27;;;;;;;30.33;8.20;;;8.90;99.90;;;8.15;78.60;101447.28;5016567;28;20574;-75
2023/05/24 03:15:01;;;;;;;30.53;7.83;;;8.80;99.90;;;8.16;78.11;101447.16;5017804;28;20597;-74
2023/05/24 03:17:34;;;;;;;24.10;7.43;;;8.90;99.90;;;8.15;78.87;101463.28;5016879;28;20227;-75
2023/05/24 03:20:10;;;;;;;30.60;7.57;;;8.90;99.90;;;8.18;78.27;101454.19;5016813;28;20192;-74
2023/05/24 03:22:43;;;;;;;25.03;6.87;;;8.90;99.90;;;8.18;78.15;101449.72;5016449;28;20640;-74
2023/05/24 03:25:17;;;;;;;26.43;7.20;;;8.90;99.90;;;8.23;77.86;101454.66;5015999;28;20200;-75
2023/05/24 03:27:51;;;;;;;28.77;6.63;;;9.00;99.90;;;8.21;78.10;101457.47;5016291;28;20238;-75
2023/05/24 03:30:25;;;;;;;26.50;7.20;;;9.00;99.90;;;8.16;79.03;101451.66;5016341;28;20732;-75
2023/05/24 03:32:58;;;;;;;29.13;7.40;;;8.80;99.90;;;8.08;79.65;101456.78;5016380;28;20255;-75
2023/05/24 03:35:32;;;;;;;32.23;7.50;;;8.80;99.90;;;8.07;79.60;101447.09;5016210;28;20206;-74
2023/05/24 03:38:05;;;;;;;28.10;7.30;;;8.80;99.90;;;8.12;79.50;101452.88;5016184;28;20196;-75
2023/05/24 03:40:38;;;;;;;30.30;7.67;;;8.80;99.90;;;8.09;79.49;101451.31;5016421;28;20262;-74
2023/05/24 03:43:12;;;;;;;26.23;7.53;;;8.80;99.90;;;8.13;79.79;101452.75;5016412;28;20238;-75
2023/05/24 03:45:48;;;;;;;28.83;7.27;;;8.80;99.90;;;8.13;79.98;101462.56;5016148;28;20199;-75
2023/05/24 03:48:21;;;;;;;23.27;7.40;;;8.80;99.90;;;8.14;79.62;101448.28;5016028;28;20192;-76
2023/05/24 03:50:55;;;;;;;25.77;7.77;;;8.80;99.90;;;8.13;80.50;101462.56;5016252;28;20232;-76
2023/05/24 03:53:28;;;;;;;26.93;7.63;;;8.90;99.90;;;8.11;80.45;101460.06;5015892;28;20672;-72
2023/05/24 03:56:01;;;;;;;28.27;7.73;;;8.80;99.90;;;8.07;80.71;101461.28;5016146;28;20355;-74
2023/05/24 03:58:35;;;;;;;25.60;7.27;;;8.80;99.90;;;8.06;80.78;101461.38;5016122;28;20287;-75
2023/05/24 04:01:08;;;;;;;25.27;7.03;;;8.80;99.90;;;8.09;80.33;101466.47;5016005;28;20313;-74
2023/05/24 04:03:50;;;;;;;28.33;8.37;;;8.80;99.90;;;8.12;80.66;101466.19;5015740;28;20652;-75
2023/05/24 04:06:27;;;;;;;27.93;7.77;;;8.80;99.90;;;8.07;80.52;101460.41;5015605;28;20642;-74
2023/05/24 04:09:04;;;;;;;24.23;7.17;;;8.80;99.90;;;8.08;80.73;101467.47;5015629;28;20640;-74
2023/05/24 04:11:38;;;;;;;36.67;8.17;;;8.80;99.90;;;8.16;80.26;101467.66;5015716;28;20317;-74
2023/05/24 04:14:11;;;;;;;23.73;7.43;;;8.90;99.90;;;8.16;80.17;101475.66;5015907;28;20219;-74
2023/05/24 04:16:44;;;;;;;21.50;6.93;;;8.90;99.90;;;8.21;80.49;101470.78;5015244;28;20278;-74
2023/05/24 04:19:18;;;;;;;31.43;7.40;;;8.90;99.90;;;8.25;79.71;101466.91;5015423;28;20188;-74
2023/05/24 04:21:51;;;;;;;30.50;7.47;;;9.00;99.90;;;8.23;80.16;101473.31;5015628;28;20270;-75
2023/05/24 04:24:24;;;;;;;21.27;6.90;;;9.00;99.90;;;8.26;80.16;101471.25;5015653;28;20291;-75
2023/05/24 04:26:58;;;;;;;24.93;8.00;;;9.00;99.90;;;8.29;79.40;101481.69;5015615;28;20202;-74
2023/05/24 04:29:32;;;;;;;29.07;7.10;;;9.10;99.90;;;8.28;80.32;101480.03;5015479;28;20295;-74
2023/05/24 04:32:06;;;;;;;21.00;6.80;;;9.00;99.90;;;8.32;79.80;101473.44;5015314;28;20314;-74
2023/05/24 04:34:41;;;;;;;31.20;7.03;;;9.10;99.90;;;8.35;80.37;101483.03;5015080;28;20215;-75
2023/05/24 04:37:15;;;;;;;31.07;7.47;;;9.10;99.90;;;8.32;80.10;101484.09;5015388;28;20198;-75
2023/05/24 04:39:50;;;;;;;27.60;7.03;;;9.10;99.90;;;8.40;79.53;101476.31;5015055;28;20246;-74
2023/05/24 04:42:24;;;;;;;28.67;7.20;;;9.10;99.90;;;8.40;80.07;101470.97;5015254;28;20251;-74
2023/05/24 04:44:57;;;;;;;24.47;7.83;;;9.20;99.90;;;8.35;80.07;101473.19;5015003;28;20278;-75
2023/05/24 04:47:30;;;;;;;26.93;8.67;;;9.10;99.90;;;8.38;79.68;101477.44;5015258;28;20188;-74
2023/05/24 04:50:05;;;;;;;22.87;7.17;;;9.10;99.90;;;8.43;79.59;101465.38;5015040;28;20718;-74
2023/05/24 04:52:38;;;;;;;24.27;7.40;;;9.20;99.90;;;8.44;79.22;101466.22;5015531;28;20742;-73
2023/05/24 04:55:13;;;;;;;23.90;8.30;;;9.10;99.90;;;8.42;79.52;101461.03;5016658;28;20234;-74
2023/05/24 04:57:47;;;;;;;23.77;7.43;;;9.20;99.90;;;8.44;79.78;101472.41;5017037;28;20199;-74
2023/05/24 05:00:22;;;;;;;20.33;7.60;;;9.20;99.90;;;8.47;79.34;101461.47;5016062;28;20223;-74
2023/05/24 05:02:56;;;;;;;28.97;7.87;;;9.20;99.90;;;8.50;79.39;101465.72;5016378;28;20222;-74
2023/05/24 05:05:30;;;;;;;24.70;7.03;;;9.20;99.90;;;8.52;79.17;101467.28;5015843;28;20192;-74
2023/05/24 05:08:03;;;;;;;26.53;6.87;;;9.20;99.90;;;8.53;79.19;101466.28;5014596;28;20287;-75
2023/05/24 05:10:37;;;;;;;29.03;8.17;;;9.30;99.90;;;8.51;79.70;101462.91;5014677;28;20290;-74
2023/05/24 05:13:10;;;;;;;30.90;8.07;;;9.30;99.90;;;8.55;79.41;101459.03;5014648;28;20306;-74
2023/05/24 05:15:44;;;;;;;24.43;8.13;;;9.30;99.90;;;8.60;79.50;101463.94;5014723;28;20215;-74
2023/05/24 05:18:17;;;;;;;23.57;6.90;;;9.30;99.90;;;8.66;79.28;101466.13;5014697;28;20280;-75
2023/05/24 05:20:51;;;;;;;29.87;7.93;;;9.40;99.90;;;8.76;79.12;101471.53;5014507;28;20227;-75
2023/05/24 05:23:24;;;;;;;25.90;7.67;;;9.50;99.90;;;8.79;79.31;101474.78;5014654;28;20235;-75
2023/05/24 05:25:58;;;;;;;21.47;7.43;;;9.50;99.90;;;8.84;78.96;101485.03;5014529;28;20290;-75
2023/05/24 05:28:31;;;;;;;28.17;8.07;;;9.60;99.90;;;8.89;78.34;101482.84;5013577;28;20203;-75
2023/05/24 05:31:04;;;;;;;28.83;7.60;;;9.60;99.90;;;8.88;78.30;101473.13;5014265;28;20231;-75
2023/05/24 05:33:38;;;;;;;29.93;7.07;;;9.60;99.90;;;8.94;78.42;101476.13;5014039;28;20234;-75
2023/05/24 05:36:11;;;;;;;28.77;7.70;;;9.70;99.90;;;8.96;78.17;101479.53;5014338;28;20242;-75
2023/05/24 05:38:45;;;;;;;26.43;7.13;;;9.70;99.90;;;8.97;77.67;101475.84;5014311;28;20298;-74
2023/05/24 05:41:19;;;;;;;26.97;7.17;;;9.70;99.90;;;9.03;78.09;101479.84;5013908;28;20795;-75
2023/05/24 05:43:53;;;;;;;24.90;7.50;;;9.80;99.90;;;9.10;77.99;101487.19;5014215;28;20278;-74
2023/05/24 05:46:26;;;;;;;24.43;7.40;;;9.80;99.90;;;9.15;77.82;101489.44;5014175;28;20282;-74
2023/05/24 05:49:00;;;;;;;30.73;7.70;;;9.90;99.90;;;9.14;78.25;101493.94;5014162;28;20198;-74
2023/05/24 05:51:33;;;;;;;23.83;7.60;;;9.90;99.90;;;9.16;78.01;101496.50;5013713;28;20329;-75
2023/05/24 05:54:07;;;;;;;28.30;8.10;;;9.90;99.90;;;9.23;78.14;101500.31;5013729;28;20258;-74
2023/05/24 05:56:44;;;;;;;28.57;7.73;;;9.90;99.90;;;9.29;78.27;101499.78;5013996;28;20195;-74
2023/05/24 05:59:18;;;;;;;25.70;7.77;;;10.00;99.90;;;9.35;77.39;101501.91;5013993;28;20187;-74
2023/05/24 06:01:51;;;;;;;29.63;8.00;;;10.10;99.90;;;9.40;77.29;101499.69;5013946;28;20277;-74
2023/05/24 06:04:25;;;;;;;28.20;7.20;;;10.10;99.90;;;9.54;77.53;101496.66;5013942;28;20194;-75
2023/05/24 06:06:58;;;;;;;23.40;7.20;;;10.30;99.90;;;9.64;76.79;101500.22;5013905;28;20196;-75
2023/05/24 06:09:31;;;;;;;30.57;7.43;;;10.40;99.90;;;9.66;76.42;101492.88;5013901;28;20241;-74
2023/05/24 06:12:06;;;;;;;24.70;6.77;;;10.40;99.90;;;9.66;75.67;101495.56;5013813;28;20241;-75
2023/05/24 06:14:39;;;;;;;24.23;6.97;;;10.40;99.90;;;9.69;75.50;101489.94;5013819;28;20265;-75
2023/05/24 06:17:13;;;;;;;22.23;6.43;;;10.40;99.90;;;9.67;75.95;101486.56;5013860;28;20198;-75
2023/05/24 06:19:46;;;;;;;29.90;6.93;;;10.40;99.90;;;9.72;76.39;101490.66;5013782;28;20188;-75
2023/05/24 06:22:20;;;;;;;20.53;6.27;;;10.40;99.90;;;9.72;75.81;101494.19;5013721;28;20318;-75
2023/05/24 06:24:54;;;;;;;26.10;6.80;;;10.40;99.90;;;9.74;75.75;101496.72;5013453;28;20219;-75
2023/05/24 06:27:27;;;;;;;31.60;7.63;;;10.40;99.90;;;9.72;74.67;101493.34;5013714;28;20227;-75
2023/05/24 06:30:00;;;;;;;22.27;6.60;;;10.50;99.90;;;9.72;75.27;101506.72;5013714;28;20196;-74
2023/05/24 06:32:34;;;;;;;22.73;6.13;;;10.40;99.90;;;9.72;75.17;101493.34;5013317;28;20711;-74
2023/05/24 06:35:10;;;;;;;21.73;6.03;;;10.40;99.90;;;9.64;74.52;101496.69;5013582;28;20299;-74
2023/05/24 06:37:43;;;;;;;24.83;6.40;;;10.40;99.90;;;9.65;75.26;101499.25;5013693;28;20242;-74
2023/05/24 06:40:17;;;;;;;25.97;6.50;;;10.30;99.90;;;9.67;75.08;101501.75;5014620;28;20187;-75
2023/05/24 06:42:51;;;;;;;26.17;7.20;;;10.40;99.90;;;9.76;75.20;101511.63;5017253;28;20659;-74
2023/05/24 06:45:24;;;;;;;22.70;6.30;;;10.50;99.90;;;9.83;75.53;101511.97;5017232;28;20227;-74
2023/05/24 06:47:57;;;;;;;21.90;6.90;;;10.50;99.90;;;9.89;74.85;101516.75;5017435;28;20203;-74
2023/05/24 06:50:31;;;;;;;25.67;6.27;;;10.60;99.90;;;9.96;74.73;101520.56;5017317;28;20199;-75
2023/05/24 06:53:05;;;;;;;28.37;7.73;;;10.70;99.90;;;9.99;74.94;101514.94;5017242;28;20294;-75
2023/05/24 06:55:38;;;;;;;20.37;6.47;;;10.70;99.90;;;10.02;74.75;101523.53;5017011;28;20286;-74
2023/05/24 06:58:13;;;;;;;25.23;7.00;;;10.70;99.90;;;10.00;73.62;101522.00;5017280;28;20287;-75
2023/05/24 07:00:46;;;;;;;20.50;6.67;;;10.70;99.90;;;10.03;73.85;101524.41;5017166;28;20285;-74
2023/05/24 07:03:20;;;;;;;26.67;6.90;;;10.70;99.90;;;10.03;74.21;101525.22;5016881;28;20196;-74
2023/05/24 07:05:53;;;;;;;24.93;6.37;;;10.70;99.90;;;10.09;74.12;101529.19;5017158;28;20266;-74
2023/05/24 07:08:27;;;;;;;25.73;7.17;;;10.80;99.90;;;10.10;74.10;101525.53;5016684;28;20279;-75
2023/05/24 07:11:01;;;;;;;22.50;6.47;;;10.80;99.90;;;10.12;74.23;101528.91;5016661;28;20238;-75
2023/05/24 07:13:34;;;;;;;26.60;6.50;;;10.80;99.90;;;10.21;73.75;101529.94;5016868;28;20231;-75
2023/05/24 07:16:10;;;;;;;25.87;6.17;;;10.90;99.90;;;10.22;72.69;101524.44;5016954;28;20275;-74
2023/05/24 07:18:44;;;;;;;22.93;6.13;;;10.90;99.90;;;10.27;73.07;101529.38;5016632;28;20234;-74
2023/05/24 07:21:17;;;;;;;23.83;6.70;;;10.90;99.90;;;10.33;73.29;101544.88;5016431;28;20693;-74
2023/05/24 07:23:52;;;;;;;20.13;6.37;;;11.00;99.90;;;10.30;72.49;101537.13;5016512;28;20227;-74
2023/05/24 07:26:25;;;;;;;19.47;5.90;;;11.00;99.90;;;10.33;73.04;101548.41;5016749;28;20249;-74
2023/05/24 07:28:58;;;;;;;21.37;6.67;;;11.10;99.90;;;10.34;73.66;101550.13;5016696;28;20227;-75
2023/05/24 07:31:33;;;;;;;19.53;5.97;;;11.00;99.90;;;10.38;73.31;101547.97;5016279;28;20766;-75
2023/05/24 07:34:07;;;;;;;24.00;6.30;;;11.00;99.90;;;10.39;72.89;101547.84;5016200;28;20226;-75
2023/05/24 07:36:41;;;;;;;20.77;6.10;;;11.10;99.90;;;10.38;73.02;101556.84;5017112;28;20264;-75
2023/05/24 07:39:15;;;;;;;23.67;5.93;;;11.10;99.90;;;10.37;73.45;101555.19;5016477;28;20250;-75
2023/05/24 07:41:49;;;;;;;18.37;6.00;;;11.10;99.90;;;10.36;73.45;101558.84;5016535;28;20269;-73
2023/05/24 07:44:23;;;;;;;22.07;6.90;;;11.10;99.90;;;10.38;73.48;101551.50;5016916;28;20245;-74
2023/05/24 07:46:57;;;;;;;18.97;6.00;;;11.10;99.90;;;10.38;73.05;101556.84;5016545;28;20223;-75
2023/05/24 07:49:31;;;;;;;19.60;5.60;;;11.10;99.90;;;10.32;73.15;101551.22;5016500;28;20208;-75
2023/05/24 07:52:05;;;;;;;20.70;5.80;;;11.00;99.90;;;10.28;73.29;101561.34;5015090;28;20669;-74
2023/05/24 07:54:38;;;;;;;19.60;5.77;;;11.00;99.90;;;10.36;73.40;101563.34;5016233;28;20243;-75
2023/05/24 07:57:11;;;;;;;25.77;6.10;;;11.00;99.90;;;10.29;73.15;101568.41;5015883;28;20609;-75
2023/05/24 07:59:45;;;;;;;20.20;5.53;;;11.00;99.90;;;10.39;73.31;101560.38;5016169;28;20192;-75
2023/05/24 08:02:18;;;;;;;24.43;6.27;;;11.10;99.90;;;10.43;73.59;101559.97;5015736;28;20781;-75
2023/05/24 08:04:52;;;;;;;28.73;6.00;;;11.10;99.90;;;10.44;73.31;101559.00;5016089;28;20192;-73
2023/05/24 08:07:25;;;;;;;23.17;6.00;;;11.10;99.90;;;10.46;74.55;101567.72;5015745;28;20265;-73
2023/05/24 08:09:59;;;;;;;25.33;5.93;;;11.20;99.90;;;10.41;77.11;101571.81;5016023;28;20330;-73
2023/05/24 08:12:32;;;;;;;20.93;5.70;;;11.10;99.90;;;10.32;79.36;101578.84;5015916;28;20230;-73
2023/05/24 08:15:07;;;;;;;20.80;6.50;;;11.00;99.90;;;10.32;79.88;101573.47;5015841;28;20584;-72
2023/05/24 08:17:41;;;;;;;21.10;6.10;;;11.00;99.90;;;10.31;81.73;101582.47;5015865;28;20199;-72
2023/05/24 08:20:16;;;;;;;22.33;6.57;;;10.90;99.90;;;10.34;80.89;101574.22;5015810;28;20214;-73
2023/05/24 08:22:50;;;;;;;27.87;6.67;;;11.00;99.90;;;10.37;81.66;101568.56;5015762;28;20286;-73
2023/05/24 08:25:23;;;;;;;22.87;7.57;;;11.00;99.90;;;10.36;82.08;101576.72;5015717;28;20275;-73
2023/05/24 08:27:57;;;;;;;24.77;6.43;;;11.00;99.90;;;10.37;81.93;101579.28;5015654;28;20287;-73
2023/05/24 08:30:31;;;;;;;25.63;6.50;;;11.00;99.90;;;10.44;82.13;101579.56;5015509;28;20192;-73
2023/05/24 08:33:04;;;;;;;23.13;7.00;;;11.10;99.90;;;10.34;83.55;101571.53;5015069;28;20566;-73
2023/05/24 08:35:38;;;;;;;23.00;6.30;;;11.00;99.90;;;10.30;83.18;101579.97;5015410;28;20222;-73
2023/05/24 08:38:13;;;;;;;21.67;7.30;;;10.90;99.90;;;10.30;82.22;101586.16;5015642;28;20196;-73
2023/05/24 08:40:47;;;;;;;19.23;6.13;;;10.90;99.90;;;10.37;82.01;101584.63;5015360;28;20672;-73
2023/05/24 08:43:23;;;;;;;24.07;6.57;;;11.00;99.90;;;10.41;81.79;101594.06;5015306;28;20191;-73
2023/05/24 08:45:58;;;;;;;18.13;6.20;;;11.10;99.90;;;10.43;80.81;101594.78;5015258;28;20192;-73
2023/05/24 08:48:34;;;;;;;22.27;6.53;;;11.10;99.90;;;10.45;80.31;101591.94;5014953;28;20662;-73
2023/05/24 08:51:10;;;;;;;20.37;6.03;;;11.10;99.90;;;10.51;80.72;101589.56;5015102;28;20223;-73
2023/05/24 08:53:48;;;;;;;14.53;5.87;;;11.20;99.90;;;10.51;80.67;101594.91;5015160;28;20287;-73
2023/05/24 08:56:25;;;;;;;17.80;6.47;;;11.10;99.90;;;10.49;80.35;101596.88;5014754;28;20633;-73
2023/05/24 08:58:59;;;;;;;18.93;6.60;;;11.20;99.90;;;10.50;80.06;101598.59;5015643;28;20229;-73
2023/05/24 09:01:37;;;;;;;18.83;6.20;;;11.10;99.90;;;10.42;80.87;101601.09;5014980;28;20235;-73
2023/05/24 09:04:11;;;;;;;20.37;6.63;;;11.10;99.90;;;10.46;81.44;101613.25;5014821;28;20215;-73
2023/05/24 09:06:46;;;;;;;17.80;6.43;;;11.10;99.90;;;10.50;80.44;101606.63;5014876;28;20195;-73
2023/05/24 09:09:25;;;;;;;21.40;7.40;;;11.20;99.90;;;10.45;80.31;101608.84;5014850;28;20282;-73
2023/05/24 09:12:04;;;;;;;18.27;6.57;;;11.10;99.90;;;10.47;79.98;101614.94;5014726;28;20227;-73
2023/05/24 09:14:38;;;;;;;21.27;6.73;;;11.10;99.90;;;10.53;80.20;101616.22;5014714;28;20215;-73
2023/05/24 09:17:14;;;;;;;21.27;6.33;;;11.20;99.90;;;10.56;80.02;101616.78;5015581;28;20198;-73
2023/05/24 09:19:52;;;;;;;21.73;7.57;;;11.20;99.90;;;10.61;79.85;101603.81;5014812;28;20195;-73
2023/05/24 09:22:29;;;;;;;22.57;6.77;;;11.20;99.90;;;10.65;80.68;101612.44;5014212;28;20639;-73
2023/05/24 09:25:06;;;;;;;17.70;6.93;;;11.30;99.90;;;10.67;79.88;101605.94;5014639;28;20183;-72
2023/05/24 09:27:40;;;;;;;20.80;6.97;;;11.30;99.90;;;10.66;79.81;101614.94;5014515;28;20219;-72
2023/05/24 09:30:17;;;;;;;23.57;7.13;;;11.30;99.90;;;10.73;80.12;101614.38;5014241;28;20194;-72
2023/05/24 09:33:02;;;;;;;21.13;6.83;;;11.40;99.90;;;10.74;79.53;101616.09;5014334;28;20229;-73
2023/05/24 09:35:36;;;;;;;19.77;6.90;;;11.40;99.90;;;10.70;79.37;101620.88;5014309;28;20227;-73
2023/05/24 09:38:18;;;;;;;22.27;7.70;;;11.30;99.90;;;10.72;79.18;101621.56;5014385;28;20192;-73
2023/05/24 09:41:00;;;;;;;17.80;6.40;;;11.40;99.90;;;10.80;79.47;101615.53;5013972;28;20642;-74
2023/05/24 09:43:46;;;;;;;12.37;6.37;;;11.40;99.90;;;10.75;79.04;101612.44;5014302;28;20560;-74
2023/05/24 09:46:23;;;;;;;18.10;7.07;;;11.40;99.90;;;10.75;79.78;101601.72;5014320;28;20231;-74
2023/05/24 09:49:05;;;;;;;20.70;6.67;;;11.40;99.90;;;10.80;79.26;101605.66;5013908;28;20539;-74
2023/05/24 09:51:41;;;;;;;19.43;6.80;;;11.40;99.90;;;11.02;79.45;101604.53;5014101;28;20227;-74
2023/05/24 09:54:17;;;;;;;18.63;6.40;;;11.70;99.90;;;11.12;78.85;101610.72;5014148;28;20202;-74
2023/05/24 09:56:51;;;;;;;21.93;6.50;;;11.80;99.90;;;11.15;77.83;101599.72;5014112;28;20302;-74
2023/05/24 09:59:24;;;;;;;26.13;7.60;;;11.80;99.90;;;11.17;78.08;101606.63;5014068;28;20214;-74
2023/05/24 10:02:10;;;;;;;19.30;6.63;;;11.80;99.90;;;11.26;78.51;101607.63;5014050;28;20313;-74
2023/05/24 10:04:44;;;;;;;18.83;6.37;;;11.90;99.90;;;11.34;77.55;101605.03;5013703;28;20237;-74
2023/05/24 10:07:20;;;;;;;13.67;6.37;;;11.90;99.90;;;11.23;77.38;101605.22;5013977;28;20226;-74
2023/05/24 10:09:55;;;;;;;15.53;5.63;;;11.90;99.90;;;11.24;78.00;101601.53;5013626;28;20230;-74
2023/05/24 10:12:30;;;;;;;16.87;6.17;;;11.90;99.90;;;11.27;77.39;101601.25;5013527;28;20313;-74
2023/05/24 10:15:06;;;;;;;21.30;6.47;;;11.90;99.90;;;11.22;77.83;101606.19;5013339;28;20297;-74
2023/05/24 10:17:40;;;;;;;16.40;6.23;;;11.90;99.90;;;11.23;77.64;101607.06;5013958;28;20188;-74
2023/05/24 10:20:15;;;;;;;18.70;7.03;;;11.90;99.90;;;11.20;78.29;101613.53;5013874;28;20197;-74
2023/05/24 10:23:04;;;;;;;19.53;6.77;;;11.80;99.90;;;11.23;79.05;101613.25;5013788;28;20223;-74
2023/05/24 10:25:44;;;;;;;21.47;6.87;;;11.80;99.90;;;11.19;79.15;101628.78;5013510;28;20598;-74
2023/05/24 10:28:22;;;;;;;21.53;6.70;;;11.90;99.90;;;11.27;79.12;101628.03;5013463;28;20238;-74
2023/05/24 10:31:07;;;;;;;20.67;6.43;;;11.90;99.90;;;11.35;79.61;101633.53;5013686;28;20241;-74
2023/05/24 10:33:47;;;;;;;19.43;6.80;;;12.00;99.90;;;11.33;81.44;101630.19;5013349;28;20211;-72
2023/05/24 10:36:21;;;;;;;18.37;6.63;;;11.90;99.90;;;11.37;81.37;101626.19;5013670;28;20216;-73
2023/05/24 10:38:56;;;;;;;14.27;5.57;;;12.00;99.90;;;11.38;80.82;101621.69;5013776;28;20246;-73
2023/05/24 10:41:38;;;;;;;11.33;5.33;;;12.00;99.90;;;11.33;80.10;101621.28;5013837;28;20281;-73
2023/05/24 10:44:18;;;;;;;14.07;4.70;;;11.90;99.90;;;11.42;80.55;101618.56;5013527;28;20631;-73
2023/05/24 10:47:11;;;;;;;12.47;5.03;;;12.00;99.90;;;11.45;81.10;101623.66;5013501;28;20608;-73